sensor_id;sensor_type;location;lat;lon;timestamp;temperature;humidity
71942;DHT22;59997;53.300;-6.260;2023-07-31T00:01:18;16.18;88.59
71942;DHT22;59997;53.300;-6.260;2023-07-31T00:03:43;16.18;88.62
71942;DHT22;59997;53.300;-6.260;2023-07-31T00:06:09;16.24;88.58
71942;DHT22;59997;53.300;-6.260;2023-07-31T00:08:34;16.28;88.35
71942;DHT22;59997;53.300;-6.260;2023-07-31T00:11:00;16.38;88.13
71942;DHT22;59997;53.300;-6.260;2023-07-31T00:13:25;16.44;87.87
71942;DHT22;59997;53.300;-6.260;2023-07-31T00:15:50;16.51;87.68
71942;DHT22;59997;53.300;-6.260;2023-07-31T00:18:16;16.52;87.64
71942;DHT22;59997;53.300;-6.260;2023-07-31T00:20:41;16.58;87.43
71942;DHT22;59997;53.300;-6.260;2023-07-31T00:23:07;16.65;87.21
71942;DHT22;59997;53.300;-6.260;2023-07-31T00:25:32;16.63;87.28
71942;DHT22;59997;53.300;-6.260;2023-07-31T00:27:58;16.58;87.40
71942;DHT22;59997;53.300;-6.260;2023-07-31T00:30:23;16.56;87.40
71942;DHT22;59997;53.300;-6.260;2023-07-31T00:32:50;16.59;87.30
71942;DHT22;59997;53.300;-6.260;2023-07-31T00:35:16;16.62;87.21
71942;DHT22;59997;53.300;-6.260;2023-07-31T00:37:41;16.62;87.20
71942;DHT22;59997;53.300;-6.260;2023-07-31T00:40:07;16.62;87.10
71942;DHT22;59997;53.300;-6.260;2023-07-31T00:42:33;16.62;87.13
71942;DHT22;59997;53.300;-6.260;2023-07-31T00:44:59;16.62;87.13
71942;DHT22;59997;53.300;-6.260;2023-07-31T00:47:24;16.59;87.13
71942;DHT22;59997;53.300;-6.260;2023-07-31T00:49:50;16.56;87.11
71942;DHT22;59997;53.300;-6.260;2023-07-31T00:52:16;16.56;87.12
71942;DHT22;59997;53.300;-6.260;2023-07-31T00:54:42;16.58;87.21
71942;DHT22;59997;53.300;-6.260;2023-07-31T00:57:08;16.59;87.06
71942;DHT22;59997;53.300;-6.260;2023-07-31T00:59:34;16.68;86.81
71942;DHT22;59997;53.300;-6.260;2023-07-31T01:02:00;16.70;86.87
71942;DHT22;59997;53.300;-6.260;2023-07-31T01:04:26;16.66;86.92
71942;DHT22;59997;53.300;-6.260;2023-07-31T01:10:04;16.60;87.04
71942;DHT22;59997;53.300;-6.260;2023-07-31T01:12:34;16.59;87.16
71942;DHT22;59997;53.300;-6.260;2023-07-31T01:17:29;16.53;87.24
71942;DHT22;59997;53.300;-6.260;2023-07-31T01:19:59;16.56;87.29
71942;DHT22;59997;53.300;-6.260;2023-07-31T01:27:54;16.47;87.58
71942;DHT22;59997;53.300;-6.260;2023-07-31T01:30:28;16.44;87.61
71942;DHT22;59997;53.300;-6.260;2023-07-31T01:32:55;16.40;87.72
71942;DHT22;59997;53.300;-6.260;2023-07-31T01:35:21;16.40;87.82
71942;DHT22;59997;53.300;-6.260;2023-07-31T01:37:47;16.35;87.89
71942;DHT22;59997;53.300;-6.260;2023-07-31T01:40:13;16.32;87.91
71942;DHT22;59997;53.300;-6.260;2023-07-31T01:42:38;16.32;88.01
71942;DHT22;59997;53.300;-6.260;2023-07-31T01:45:04;16.21;88.15
71942;DHT22;59997;53.300;-6.260;2023-07-31T01:47:29;16.20;88.19
71942;DHT22;59997;53.300;-6.260;2023-07-31T01:49:55;16.21;88.12
71942;DHT22;59997;53.300;-6.260;2023-07-31T01:52:20;16.18;88.13
71942;DHT22;59997;53.300;-6.260;2023-07-31T01:54:46;16.21;88.09
71942;DHT22;59997;53.300;-6.260;2023-07-31T01:57:11;16.18;88.18
71942;DHT22;59997;53.300;-6.260;2023-07-31T01:59:37;16.14;88.15
71942;DHT22;59997;53.300;-6.260;2023-07-31T02:02:02;16.16;88.18
71942;DHT22;59997;53.300;-6.260;2023-07-31T02:04:28;16.10;88.26
71942;DHT22;59997;53.300;-6.260;2023-07-31T02:06:53;16.13;88.23
71942;DHT22;59997;53.300;-6.260;2023-07-31T02:09:19;16.13;88.23
71942;DHT22;59997;53.300;-6.260;2023-07-31T02:11:44;16.16;88.26
71942;DHT22;59997;53.300;-6.260;2023-07-31T02:14:10;16.11;88.23
71942;DHT22;59997;53.300;-6.260;2023-07-31T02:16:35;16.11;88.22
71942;DHT22;59997;53.300;-6.260;2023-07-31T02:19:00;16.16;88.18
71942;DHT22;59997;53.300;-6.260;2023-07-31T02:21:26;16.11;88.13
71942;DHT22;59997;53.300;-6.260;2023-07-31T02:23:51;16.17;88.07
71942;DHT22;59997;53.300;-6.260;2023-07-31T02:26:17;16.20;87.94
71942;DHT22;59997;53.300;-6.260;2023-07-31T02:28:42;16.24;87.80
71942;DHT22;59997;53.300;-6.260;2023-07-31T02:31:08;16.24;87.75
71942;DHT22;59997;53.300;-6.260;2023-07-31T02:33:34;16.24;87.78
71942;DHT22;59997;53.300;-6.260;2023-07-31T02:35:59;16.24;87.79
71942;DHT22;59997;53.300;-6.260;2023-07-31T02:38:25;16.21;87.85
71942;DHT22;59997;53.300;-6.260;2023-07-31T02:40:50;16.17;87.87
71942;DHT22;59997;53.300;-6.260;2023-07-31T02:43:16;16.16;87.84
71942;DHT22;59997;53.300;-6.260;2023-07-31T02:45:41;16.20;87.82
71942;DHT22;59997;53.300;-6.260;2023-07-31T02:48:07;16.17;87.85
71942;DHT22;59997;53.300;-6.260;2023-07-31T02:50:33;16.16;87.83
71942;DHT22;59997;53.300;-6.260;2023-07-31T02:52:59;16.17;87.78
71942;DHT22;59997;53.300;-6.260;2023-07-31T02:55:24;16.22;87.70
71942;DHT22;59997;53.300;-6.260;2023-07-31T02:57:49;16.22;87.68
71942;DHT22;59997;53.300;-6.260;2023-07-31T03:00:17;16.21;87.72
71942;DHT22;59997;53.300;-6.260;2023-07-31T03:02:42;16.18;87.68
71942;DHT22;59997;53.300;-6.260;2023-07-31T03:05:08;16.18;87.83
71942;DHT22;59997;53.300;-6.260;2023-07-31T03:07:33;16.14;87.89
71942;DHT22;59997;53.300;-6.260;2023-07-31T03:09:59;16.14;87.95
71942;DHT22;59997;53.300;-6.260;2023-07-31T03:12:24;16.10;88.02
71942;DHT22;59997;53.300;-6.260;2023-07-31T03:14:50;16.08;88.07
71942;DHT22;59997;53.300;-6.260;2023-07-31T03:17:15;16.07;88.08
71942;DHT22;59997;53.300;-6.260;2023-07-31T03:19:41;16.03;88.13
71942;DHT22;59997;53.300;-6.260;2023-07-31T03:22:06;15.97;88.25
71942;DHT22;59997;53.300;-6.260;2023-07-31T03:24:32;16.03;88.13
71942;DHT22;59997;53.300;-6.260;2023-07-31T03:26:57;15.99;88.17
71942;DHT22;59997;53.300;-6.260;2023-07-31T03:29:22;15.90;88.20
71942;DHT22;59997;53.300;-6.260;2023-07-31T03:31:48;15.83;88.31
71942;DHT22;59997;53.300;-6.260;2023-07-31T03:34:13;15.78;88.39
71942;DHT22;59997;53.300;-6.260;2023-07-31T03:36:39;15.76;88.48
71942;DHT22;59997;53.300;-6.260;2023-07-31T03:39:04;15.79;88.39
71942;DHT22;59997;53.300;-6.260;2023-07-31T03:41:30;15.86;88.33
71942;DHT22;59997;53.300;-6.260;2023-07-31T03:43:55;15.92;88.17
71942;DHT22;59997;53.300;-6.260;2023-07-31T03:46:24;16.00;88.02
71942;DHT22;59997;53.300;-6.260;2023-07-31T03:48:50;16.06;88.03
71942;DHT22;59997;53.300;-6.260;2023-07-31T03:51:16;16.08;87.98
71942;DHT22;59997;53.300;-6.260;2023-07-31T03:53:42;16.08;87.97
71942;DHT22;59997;53.300;-6.260;2023-07-31T03:56:08;16.06;88.00
71942;DHT22;59997;53.300;-6.260;2023-07-31T03:58:34;16.03;88.00
71942;DHT22;59997;53.300;-6.260;2023-07-31T04:01:00;15.99;88.13
71942;DHT22;59997;53.300;-6.260;2023-07-31T04:03:25;15.99;88.07
71942;DHT22;59997;53.300;-6.260;2023-07-31T04:05:51;15.97;88.07
71942;DHT22;59997;53.300;-6.260;2023-07-31T04:08:16;16.00;88.04
71942;DHT22;59997;53.300;-6.260;2023-07-31T04:10:42;15.96;88.10
71942;DHT22;59997;53.300;-6.260;2023-07-31T04:13:07;15.92;88.11
71942;DHT22;59997;53.300;-6.260;2023-07-31T04:15:32;15.93;88.11
71942;DHT22;59997;53.300;-6.260;2023-07-31T04:17:58;15.94;88.17
71942;DHT22;59997;53.300;-6.260;2023-07-31T04:20:24;16.01;88.02
71942;DHT22;59997;53.300;-6.260;2023-07-31T04:22:49;16.04;87.99
71942;DHT22;59997;53.300;-6.260;2023-07-31T04:25:15;16.07;88.04
71942;DHT22;59997;53.300;-6.260;2023-07-31T04:27:40;16.03;87.98
71942;DHT22;59997;53.300;-6.260;2023-07-31T04:30:06;16.01;88.04
71942;DHT22;59997;53.300;-6.260;2023-07-31T04:32:32;16.01;88.06
71942;DHT22;59997;53.300;-6.260;2023-07-31T04:34:57;16.03;88.07
71942;DHT22;59997;53.300;-6.260;2023-07-31T04:37:23;16.00;88.06
71942;DHT22;59997;53.300;-6.260;2023-07-31T04:39:48;15.93;88.16
71942;DHT22;59997;53.300;-6.260;2023-07-31T04:42:13;15.93;88.24
71942;DHT22;59997;53.300;-6.260;2023-07-31T04:44:39;15.92;88.30
71942;DHT22;59997;53.300;-6.260;2023-07-31T04:47:05;15.86;88.35
71942;DHT22;59997;53.300;-6.260;2023-07-31T04:49:32;15.78;88.41
71942;DHT22;59997;53.300;-6.260;2023-07-31T04:51:57;15.75;88.44
71942;DHT22;59997;53.300;-6.260;2023-07-31T04:54:23;15.70;88.46
71942;DHT22;59997;53.300;-6.260;2023-07-31T04:56:48;15.70;88.49
71942;DHT22;59997;53.300;-6.260;2023-07-31T04:59:14;15.67;88.48
71942;DHT22;59997;53.300;-6.260;2023-07-31T05:01:39;15.66;88.50
71942;DHT22;59997;53.300;-6.260;2023-07-31T05:04:04;15.65;88.55
71942;DHT22;59997;53.300;-6.260;2023-07-31T05:06:30;15.67;88.53
71942;DHT22;59997;53.300;-6.260;2023-07-31T05:08:55;15.72;88.43
71942;DHT22;59997;53.300;-6.260;2023-07-31T05:11:21;15.78;88.27
71942;DHT22;59997;53.300;-6.260;2023-07-31T05:13:46;15.78;88.18
71942;DHT22;59997;53.300;-6.260;2023-07-31T05:16:12;15.81;88.16
71942;DHT22;59997;53.300;-6.260;2023-07-31T05:18:37;15.81;88.08
71942;DHT22;59997;53.300;-6.260;2023-07-31T05:21:02;15.87;87.98
71942;DHT22;59997;53.300;-6.260;2023-07-31T05:23:28;15.87;87.95
71942;DHT22;59997;53.300;-6.260;2023-07-31T05:25:54;15.93;87.84
71942;DHT22;59997;53.300;-6.260;2023-07-31T05:28:21;15.92;87.73
71942;DHT22;59997;53.300;-6.260;2023-07-31T05:30:47;15.90;87.81
71942;DHT22;59997;53.300;-6.260;2023-07-31T05:33:12;15.94;87.77
71942;DHT22;59997;53.300;-6.260;2023-07-31T05:35:38;15.90;87.84
71942;DHT22;59997;53.300;-6.260;2023-07-31T05:38:03;15.85;87.99
71942;DHT22;59997;53.300;-6.260;2023-07-31T05:40:32;15.78;88.11
71942;DHT22;59997;53.300;-6.260;2023-07-31T05:42:57;15.76;88.12
71942;DHT22;59997;53.300;-6.260;2023-07-31T05:45:23;15.70;88.20
71942;DHT22;59997;53.300;-6.260;2023-07-31T05:47:48;15.62;88.41
71942;DHT22;59997;53.300;-6.260;2023-07-31T05:50:14;15.52;88.48
71942;DHT22;59997;53.300;-6.260;2023-07-31T05:52:39;15.47;88.55
71942;DHT22;59997;53.300;-6.260;2023-07-31T05:55:05;15.45;88.57
71942;DHT22;59997;53.300;-6.260;2023-07-31T05:57:31;15.45;88.65
71942;DHT22;59997;53.300;-6.260;2023-07-31T05:59:56;15.44;88.55
71942;DHT22;59997;53.300;-6.260;2023-07-31T06:02:22;15.45;88.48
71942;DHT22;59997;53.300;-6.260;2023-07-31T06:04:47;15.49;88.46
71942;DHT22;59997;53.300;-6.260;2023-07-31T06:07:12;15.55;88.27
71942;DHT22;59997;53.300;-6.260;2023-07-31T06:09:38;15.57;88.22
71942;DHT22;59997;53.300;-6.260;2023-07-31T06:12:04;15.62;87.93
71942;DHT22;59997;53.300;-6.260;2023-07-31T06:14:29;15.63;87.72
71942;DHT22;59997;53.300;-6.260;2023-07-31T06:16:55;15.58;87.86
71942;DHT22;59997;53.300;-6.260;2023-07-31T06:19:20;15.61;87.73
71942;DHT22;59997;53.300;-6.260;2023-07-31T06:21:46;15.57;87.76
71942;DHT22;59997;53.300;-6.260;2023-07-31T06:24:11;15.62;87.70
71942;DHT22;59997;53.300;-6.260;2023-07-31T06:26:38;15.63;87.62
71942;DHT22;59997;53.300;-6.260;2023-07-31T06:29:03;15.67;87.49
71942;DHT22;59997;53.300;-6.260;2023-07-31T06:31:29;15.67;87.36
71942;DHT22;59997;53.300;-6.260;2023-07-31T06:33:54;15.70;87.36
71942;DHT22;59997;53.300;-6.260;2023-07-31T06:36:20;15.73;87.24
71942;DHT22;59997;53.300;-6.260;2023-07-31T06:38:45;15.75;87.14
71942;DHT22;59997;53.300;-6.260;2023-07-31T06:41:11;15.76;87.19
71942;DHT22;59997;53.300;-6.260;2023-07-31T06:43:37;15.79;87.03
71942;DHT22;59997;53.300;-6.260;2023-07-31T06:46:06;15.75;87.06
71942;DHT22;59997;53.300;-6.260;2023-07-31T06:48:35;15.81;87.12
71942;DHT22;59997;53.300;-6.260;2023-07-31T06:51:02;15.81;87.16
71942;DHT22;59997;53.300;-6.260;2023-07-31T06:53:28;15.86;86.95
71942;DHT22;59997;53.300;-6.260;2023-07-31T06:55:53;15.92;86.86
71942;DHT22;59997;53.300;-6.260;2023-07-31T06:58:20;15.93;86.84
71942;DHT22;59997;53.300;-6.260;2023-07-31T07:00:45;15.96;86.57
71942;DHT22;59997;53.300;-6.260;2023-07-31T07:03:10;15.97;86.39
71942;DHT22;59997;53.300;-6.260;2023-07-31T07:05:36;15.92;86.66
71942;DHT22;59997;53.300;-6.260;2023-07-31T07:08:01;15.93;86.60
71942;DHT22;59997;53.300;-6.260;2023-07-31T07:10:27;15.90;86.85
71942;DHT22;59997;53.300;-6.260;2023-07-31T07:12:52;15.90;86.71
71942;DHT22;59997;53.300;-6.260;2023-07-31T07:15:18;15.89;86.80
71942;DHT22;59997;53.300;-6.260;2023-07-31T07:17:43;15.90;86.89
71942;DHT22;59997;53.300;-6.260;2023-07-31T07:20:09;15.87;86.91
71942;DHT22;59997;53.300;-6.260;2023-07-31T07:22:35;15.94;86.79
71942;DHT22;59997;53.300;-6.260;2023-07-31T07:25:00;15.99;86.78
71942;DHT22;59997;53.300;-6.260;2023-07-31T07:27:26;15.94;86.85
71942;DHT22;59997;53.300;-6.260;2023-07-31T07:29:53;15.93;87.01
71942;DHT22;59997;53.300;-6.260;2023-07-31T07:32:18;15.96;86.93
71942;DHT22;59997;53.300;-6.260;2023-07-31T07:34:44;15.93;86.88
71942;DHT22;59997;53.300;-6.260;2023-07-31T07:37:10;15.90;87.12
71942;DHT22;59997;53.300;-6.260;2023-07-31T07:39:35;15.90;87.20
71942;DHT22;59997;53.300;-6.260;2023-07-31T07:42:00;15.85;87.36
71942;DHT22;59997;53.300;-6.260;2023-07-31T07:44:26;15.81;87.55
71942;DHT22;59997;53.300;-6.260;2023-07-31T07:46:52;15.79;87.53
71942;DHT22;59997;53.300;-6.260;2023-07-31T07:49:17;15.85;87.34
71942;DHT22;59997;53.300;-6.260;2023-07-31T07:51:43;15.90;87.56
71942;DHT22;59997;53.300;-6.260;2023-07-31T07:54:08;15.97;87.40
71942;DHT22;59997;53.300;-6.260;2023-07-31T07:56:34;16.04;87.37
71942;DHT22;59997;53.300;-6.260;2023-07-31T07:59:01;16.10;87.41
71942;DHT22;59997;53.300;-6.260;2023-07-31T08:01:27;16.03;87.34
71942;DHT22;59997;53.300;-6.260;2023-07-31T08:03:52;15.90;87.66
71942;DHT22;59997;53.300;-6.260;2023-07-31T08:06:18;15.81;88.01
71942;DHT22;59997;53.300;-6.260;2023-07-31T08:08:44;15.81;88.02
71942;DHT22;59997;53.300;-6.260;2023-07-31T08:11:09;15.87;87.72
71942;DHT22;59997;53.300;-6.260;2023-07-31T08:13:35;15.86;87.28
71942;DHT22;59997;53.300;-6.260;2023-07-31T08:16:03;15.94;87.46
71942;DHT22;59997;53.300;-6.260;2023-07-31T08:18:28;15.97;87.35
71942;DHT22;59997;53.300;-6.260;2023-07-31T08:20:54;15.90;87.25
71942;DHT22;59997;53.300;-6.260;2023-07-31T08:23:19;15.96;87.10
71942;DHT22;59997;53.300;-6.260;2023-07-31T08:25:45;16.03;86.86
71942;DHT22;59997;53.300;-6.260;2023-07-31T08:28:10;16.10;86.83
71942;DHT22;59997;53.300;-6.260;2023-07-31T08:30:35;16.17;86.51
71942;DHT22;59997;53.300;-6.260;2023-07-31T08:33:01;16.14;86.21
71942;DHT22;59997;53.300;-6.260;2023-07-31T08:35:27;16.07;86.15
71942;DHT22;59997;53.300;-6.260;2023-07-31T08:37:53;15.85;85.94
71942;DHT22;59997;53.300;-6.260;2023-07-31T08:40:19;15.72;86.23
71942;DHT22;59997;53.300;-6.260;2023-07-31T08:42:49;15.61;86.50
71942;DHT22;59997;53.300;-6.260;2023-07-31T08:45:19;15.61;86.85
71942;DHT22;59997;53.300;-6.260;2023-07-31T08:47:50;15.63;86.81
71942;DHT22;59997;53.300;-6.260;2023-07-31T08:50:18;15.69;86.38
71942;DHT22;59997;53.300;-6.260;2023-07-31T08:52:45;15.85;86.34
71942;DHT22;59997;53.300;-6.260;2023-07-31T08:55:10;15.96;86.33
71942;DHT22;59997;53.300;-6.260;2023-07-31T08:57:37;16.08;86.52
71942;DHT22;59997;53.300;-6.260;2023-07-31T09:00:08;16.01;86.72
71942;DHT22;59997;53.300;-6.260;2023-07-31T09:02:38;16.00;86.68
71942;DHT22;59997;53.300;-6.260;2023-07-31T09:05:06;15.90;86.64
71942;DHT22;59997;53.300;-6.260;2023-07-31T09:07:34;15.89;86.26
71942;DHT22;59997;53.300;-6.260;2023-07-31T09:10:02;15.86;86.76
71942;DHT22;59997;53.300;-6.260;2023-07-31T09:12:28;15.96;86.69
71942;DHT22;59997;53.300;-6.260;2023-07-31T09:14:53;16.01;86.19
71942;DHT22;59997;53.300;-6.260;2023-07-31T09:17:33;16.03;86.40
71942;DHT22;59997;53.300;-6.260;2023-07-31T09:20:19;16.03;86.41
71942;DHT22;59997;53.300;-6.260;2023-07-31T09:22:47;16.01;86.10
71942;DHT22;59997;53.300;-6.260;2023-07-31T09:27:57;16.07;86.07
71942;DHT22;59997;53.300;-6.260;2023-07-31T09:30:23;16.03;86.21
71942;DHT22;59997;53.300;-6.260;2023-07-31T09:32:50;16.00;86.36
71942;DHT22;59997;53.300;-6.260;2023-07-31T09:35:31;15.99;86.70
71942;DHT22;59997;53.300;-6.260;2023-07-31T09:38:00;15.90;86.84
71942;DHT22;59997;53.300;-6.260;2023-07-31T09:40:30;15.90;86.89
71942;DHT22;59997;53.300;-6.260;2023-07-31T09:43:01;15.82;87.13
71942;DHT22;59997;53.300;-6.260;2023-07-31T09:45:27;15.81;87.29
71942;DHT22;59997;53.300;-6.260;2023-07-31T09:47:53;15.70;87.33
71942;DHT22;59997;53.300;-6.260;2023-07-31T09:50:23;15.63;87.63
71942;DHT22;59997;53.300;-6.260;2023-07-31T09:52:50;15.63;87.58
71942;DHT22;59997;53.300;-6.260;2023-07-31T09:55:18;15.65;87.80
71942;DHT22;59997;53.300;-6.260;2023-07-31T09:57:45;15.66;87.83
71942;DHT22;59997;53.300;-6.260;2023-07-31T10:00:13;15.61;87.97
71942;DHT22;59997;53.300;-6.260;2023-07-31T10:02:39;15.59;87.94
71942;DHT22;59997;53.300;-6.260;2023-07-31T10:05:06;15.66;87.94
71942;DHT22;59997;53.300;-6.260;2023-07-31T10:07:36;15.89;87.82
71942;DHT22;59997;53.300;-6.260;2023-07-31T10:10:04;16.01;87.79
71942;DHT22;59997;53.300;-6.260;2023-07-31T10:12:32;16.04;87.56
71942;DHT22;59997;53.300;-6.260;2023-07-31T10:14:59;15.94;87.61
71942;DHT22;59997;53.300;-6.260;2023-07-31T10:17:26;15.73;87.86
71942;DHT22;59997;53.300;-6.260;2023-07-31T10:19:52;15.65;88.02
71942;DHT22;59997;53.300;-6.260;2023-07-31T10:22:19;15.57;88.15
71942;DHT22;59997;53.300;-6.260;2023-07-31T10:24:46;15.49;88.07
71942;DHT22;59997;53.300;-6.260;2023-07-31T10:27:12;15.38;88.24
71942;DHT22;59997;53.300;-6.260;2023-07-31T10:29:45;15.34;88.32
71942;DHT22;59997;53.300;-6.260;2023-07-31T10:32:13;15.40;88.42
71942;DHT22;59997;53.300;-6.260;2023-07-31T10:34:41;15.52;88.70
71942;DHT22;59997;53.300;-6.260;2023-07-31T10:37:28;15.67;88.41
71942;DHT22;59997;53.300;-6.260;2023-07-31T10:40:05;15.72;88.20
71942;DHT22;59997;53.300;-6.260;2023-07-31T10:42:37;15.73;88.27
71942;DHT22;59997;53.300;-6.260;2023-07-31T10:45:07;15.65;88.27
71942;DHT22;59997;53.300;-6.260;2023-07-31T10:47:45;15.61;88.41
71942;DHT22;59997;53.300;-6.260;2023-07-31T10:50:19;15.61;88.40
71942;DHT22;59997;53.300;-6.260;2023-07-31T10:52:55;15.62;88.52
71942;DHT22;59997;53.300;-6.260;2023-07-31T10:58:06;15.92;88.17
71942;DHT22;59997;53.300;-6.260;2023-07-31T11:00:32;15.99;87.75
71942;DHT22;59997;53.300;-6.260;2023-07-31T11:03:18;16.07;87.39
71942;DHT22;59997;53.300;-6.260;2023-07-31T11:08:26;16.01;87.68
71942;DHT22;59997;53.300;-6.260;2023-07-31T11:13:26;16.07;87.64
71942;DHT22;59997;53.300;-6.260;2023-07-31T11:15:51;16.22;87.56
71942;DHT22;59997;53.300;-6.260;2023-07-31T11:18:17;16.40;87.27
71942;DHT22;59997;53.300;-6.260;2023-07-31T11:20:43;16.49;87.08
71942;DHT22;59997;53.300;-6.260;2023-07-31T11:23:10;16.73;87.12
71942;DHT22;59997;53.300;-6.260;2023-07-31T11:25:37;16.83;87.11
71942;DHT22;59997;53.300;-6.260;2023-07-31T11:28:10;16.76;86.95
71942;DHT22;59997;53.300;-6.260;2023-07-31T11:30:37;16.60;87.00
71942;DHT22;59997;53.300;-6.260;2023-07-31T11:33:03;16.45;87.26
71942;DHT22;59997;53.300;-6.260;2023-07-31T11:35:30;16.35;87.15
71942;DHT22;59997;53.300;-6.260;2023-07-31T11:37:56;16.42;87.09
71942;DHT22;59997;53.300;-6.260;2023-07-31T11:40:21;16.66;86.95
71942;DHT22;59997;53.300;-6.260;2023-07-31T11:42:47;16.93;86.77
71942;DHT22;59997;53.300;-6.260;2023-07-31T11:45:12;17.17;85.43
71942;DHT22;59997;53.300;-6.260;2023-07-31T11:47:38;17.46;85.45
71942;DHT22;59997;53.300;-6.260;2023-07-31T11:50:05;17.50;84.15
71942;DHT22;59997;53.300;-6.260;2023-07-31T11:52:35;17.67;84.78
71942;DHT22;59997;53.300;-6.260;2023-07-31T11:55:01;17.67;84.59
71942;DHT22;59997;53.300;-6.260;2023-07-31T11:57:28;17.73;84.94
71942;DHT22;59997;53.300;-6.260;2023-07-31T11:59:55;17.62;84.55
71942;DHT22;59997;53.300;-6.260;2023-07-31T12:02:21;17.28;85.18
71942;DHT22;59997;53.300;-6.260;2023-07-31T12:04:47;17.11;86.25
71942;DHT22;59997;53.300;-6.260;2023-07-31T12:07:13;17.06;86.09
71942;DHT22;59997;53.300;-6.260;2023-07-31T12:09:50;17.04;86.63
71942;DHT22;59997;53.300;-6.260;2023-07-31T12:12:20;17.10;86.59
71942;DHT22;59997;53.300;-6.260;2023-07-31T12:14:46;17.29;86.72
71942;DHT22;59997;53.300;-6.260;2023-07-31T12:17:11;17.53;86.98
71942;DHT22;59997;53.300;-6.260;2023-07-31T12:19:37;18.32;86.15
71942;DHT22;59997;53.300;-6.260;2023-07-31T12:22:14;17.98;85.19
71942;DHT22;59997;53.300;-6.260;2023-07-31T12:24:43;18.05;85.48
71942;DHT22;59997;53.300;-6.260;2023-07-31T12:27:14;17.87;84.64
71942;DHT22;59997;53.300;-6.260;2023-07-31T12:29:41;17.91;85.51
71942;DHT22;59997;53.300;-6.260;2023-07-31T12:32:24;17.88;85.23
71942;DHT22;59997;53.300;-6.260;2023-07-31T12:34:54;18.19;85.86
71942;DHT22;59997;53.300;-6.260;2023-07-31T12:37:22;19.26;84.24
71942;DHT22;59997;53.300;-6.260;2023-07-31T12:39:48;19.88;79.32
71942;DHT22;59997;53.300;-6.260;2023-07-31T12:42:13;20.13;78.82
71942;DHT22;59997;53.300;-6.260;2023-07-31T12:44:39;20.57;80.36
71942;DHT22;59997;53.300;-6.260;2023-07-31T12:47:04;20.88;79.74
71942;DHT22;59997;53.300;-6.260;2023-07-31T12:49:30;21.31;79.56
71942;DHT22;59997;53.300;-6.260;2023-07-31T12:51:55;21.85;77.87
71942;DHT22;59997;53.300;-6.260;2023-07-31T12:54:21;22.33;76.87
71942;DHT22;59997;53.300;-6.260;2023-07-31T12:56:46;22.32;73.63
71942;DHT22;59997;53.300;-6.260;2023-07-31T12:59:12;22.12;72.27
71942;DHT22;59997;53.300;-6.260;2023-07-31T13:01:37;22.45;72.17
71942;DHT22;59997;53.300;-6.260;2023-07-31T13:04:03;22.99;72.71
71942;DHT22;59997;53.300;-6.260;2023-07-31T13:06:28;23.06;69.16
71942;DHT22;59997;53.300;-6.260;2023-07-31T13:08:54;22.62;72.41
71942;DHT22;59997;53.300;-6.260;2023-07-31T13:11:19;21.23;75.29
71942;DHT22;59997;53.300;-6.260;2023-07-31T13:13:44;20.39;76.03
71942;DHT22;59997;53.300;-6.260;2023-07-31T13:16:10;20.74;77.04
71942;DHT22;59997;53.300;-6.260;2023-07-31T13:18:36;21.26;76.02
71942;DHT22;59997;53.300;-6.260;2023-07-31T13:21:01;21.05;73.50
71942;DHT22;59997;53.300;-6.260;2023-07-31T13:23:26;20.71;73.91
71942;DHT22;59997;53.300;-6.260;2023-07-31T13:25:52;21.02;72.12
71942;DHT22;59997;53.300;-6.260;2023-07-31T13:28:17;21.30;71.14
71942;DHT22;59997;53.300;-6.260;2023-07-31T13:30:43;22.36;72.29
71942;DHT22;59997;53.300;-6.260;2023-07-31T13:33:08;23.16;67.53
71942;DHT22;59997;53.300;-6.260;2023-07-31T13:35:34;23.03;66.86
71942;DHT22;59997;53.300;-6.260;2023-07-31T13:37:59;23.10;68.29
71942;DHT22;59997;53.300;-6.260;2023-07-31T13:40:25;23.21;66.91
71942;DHT22;59997;53.300;-6.260;2023-07-31T13:42:50;23.26;67.83
71942;DHT22;59997;53.300;-6.260;2023-07-31T13:45:16;23.19;70.21
71942;DHT22;59997;53.300;-6.260;2023-07-31T13:47:41;23.33;68.94
71942;DHT22;59997;53.300;-6.260;2023-07-31T13:50:07;23.10;66.25
71942;DHT22;59997;53.300;-6.260;2023-07-31T13:52:33;22.84;67.96
71942;DHT22;59997;53.300;-6.260;2023-07-31T13:54:58;21.78;69.64
71942;DHT22;59997;53.300;-6.260;2023-07-31T13:57:24;20.74;73.15
71942;DHT22;59997;53.300;-6.260;2023-07-31T13:59:49;19.30;77.81
71942;DHT22;59997;53.300;-6.260;2023-07-31T14:02:15;18.26;81.80
71942;DHT22;59997;53.300;-6.260;2023-07-31T14:04:40;18.14;83.87
71942;DHT22;59997;53.300;-6.260;2023-07-31T14:07:06;18.01;84.32
71942;DHT22;59997;53.300;-6.260;2023-07-31T14:09:32;17.94;84.26
71942;DHT22;59997;53.300;-6.260;2023-07-31T14:11:57;17.91;84.70
71942;DHT22;59997;53.300;-6.260;2023-07-31T14:14:23;17.90;84.66
71942;DHT22;59997;53.300;-6.260;2023-07-31T14:16:48;17.86;83.44
71942;DHT22;59997;53.300;-6.260;2023-07-31T14:19:14;17.73;82.34
71942;DHT22;59997;53.300;-6.260;2023-07-31T14:21:39;18.25;81.36
71942;DHT22;59997;53.300;-6.260;2023-07-31T14:24:05;18.75;81.37
71942;DHT22;59997;53.300;-6.260;2023-07-31T14:26:31;19.22;79.89
71942;DHT22;59997;53.300;-6.260;2023-07-31T14:28:56;19.47;79.40
71942;DHT22;59997;53.300;-6.260;2023-07-31T14:31:21;19.53;78.83
71942;DHT22;59997;53.300;-6.260;2023-07-31T14:33:47;19.57;78.50
71942;DHT22;59997;53.300;-6.260;2023-07-31T14:36:13;19.85;77.93
71942;DHT22;59997;53.300;-6.260;2023-07-31T14:38:38;20.12;78.11
71942;DHT22;59997;53.300;-6.260;2023-07-31T14:41:03;19.91;76.99
71942;DHT22;59997;53.300;-6.260;2023-07-31T14:43:29;19.36;78.46
71942;DHT22;59997;53.300;-6.260;2023-07-31T14:45:54;19.04;79.11
71942;DHT22;59997;53.300;-6.260;2023-07-31T14:48:24;18.73;79.09
71942;DHT22;59997;53.300;-6.260;2023-07-31T14:50:49;19.81;77.80
71942;DHT22;59997;53.300;-6.260;2023-07-31T14:53:15;20.37;77.17
71942;DHT22;59997;53.300;-6.260;2023-07-31T14:55:40;20.72;76.32
71942;DHT22;59997;53.300;-6.260;2023-07-31T14:58:06;20.32;74.84
71942;DHT22;59997;53.300;-6.260;2023-07-31T15:00:31;19.32;78.06
71942;DHT22;59997;53.300;-6.260;2023-07-31T15:02:57;18.77;80.63
71942;DHT22;59997;53.300;-6.260;2023-07-31T15:05:22;18.14;83.79
71942;DHT22;59997;53.300;-6.260;2023-07-31T15:07:48;18.14;84.36
71942;DHT22;59997;53.300;-6.260;2023-07-31T15:10:13;18.01;84.06
71942;DHT22;59997;53.300;-6.260;2023-07-31T15:12:40;18.43;82.54
71942;DHT22;59997;53.300;-6.260;2023-07-31T15:15:06;19.01;82.66
71942;DHT22;59997;53.300;-6.260;2023-07-31T15:17:31;18.68;81.52
71942;DHT22;59997;53.300;-6.260;2023-07-31T15:19:57;18.07;81.74
71942;DHT22;59997;53.300;-6.260;2023-07-31T15:22:23;17.96;83.38
71942;DHT22;59997;53.300;-6.260;2023-07-31T15:24:49;17.86;82.76
71942;DHT22;59997;53.300;-6.260;2023-07-31T15:27:15;17.84;82.81
71942;DHT22;59997;53.300;-6.260;2023-07-31T15:29:41;17.72;84.07
71942;DHT22;59997;53.300;-6.260;2023-07-31T15:32:06;17.73;84.35